Terminal Aerodrome Forecast
Issued by NWS

Home | Current Version | Previous Version | Graphics & Text | Print | Product List | Glossary On
Versions: 1 2 3 4 5 6 7 8 9 10 11 12 13 14 15 16 17
146
FTUS43 KMPX 232340
TAFRNH
TAF
KRNH 232340Z 2400/2424 15010KT 6SM -SHRA OVC025
     FM240600 11004KT 3SM -SHRA BR OVC008
     FM241000 03005KT 3SM -RA OVC006
     FM241600 02009KT 6SM BR VCSH OVC010
     FM242000 02010KT P6SM OVC015=

USA.gov is the U.S. government's official web portal to all federal, state and local government web resources and services.